sensor_id;sensor_type;location;lat;lon;timestamp;P1;durP1;ratioP1;P2;durP2;ratioP2
45420;SDS011;55462;47.042;8.292;2023-09-08T00:01:45;9.55;;;8.75;;
45420;SDS011;55462;47.042;8.292;2023-09-08T00:04:10;9.93;;;9.13;;
45420;SDS011;55462;47.042;8.292;2023-09-08T00:06:36;11.07;;;9.98;;
45420;SDS011;55462;47.042;8.292;2023-09-08T00:09:02;10.05;;;9.13;;
45420;SDS011;55462;47.042;8.292;2023-09-08T00:11:28;9.88;;;8.95;;
45420;SDS011;55462;47.042;8.292;2023-09-08T00:13:53;10.45;;;9.10;;
45420;SDS011;55462;47.042;8.292;2023-09-08T00:16:19;9.73;;;8.80;;
45420;SDS011;55462;47.042;8.292;2023-09-08T00:18:44;9.55;;;8.73;;
45420;SDS011;55462;47.042;8.292;2023-09-08T00:21:10;10.60;;;9.63;;
45420;SDS011;55462;47.042;8.292;2023-09-08T00:23:35;10.18;;;9.38;;
45420;SDS011;55462;47.042;8.292;2023-09-08T00:26:06;10.32;;;9.43;;
45420;SDS011;55462;47.042;8.292;2023-09-08T00:28:32;10.13;;;9.23;;
45420;SDS011;55462;47.042;8.292;2023-09-08T00:30:57;10.55;;;9.50;;
45420;SDS011;55462;47.042;8.292;2023-09-08T00:33:24;11.50;;;10.43;;
45420;SDS011;55462;47.042;8.292;2023-09-08T00:35:50;10.05;;;9.25;;
45420;SDS011;55462;47.042;8.292;2023-09-08T00:38:15;10.93;;;9.88;;
45420;SDS011;55462;47.042;8.292;2023-09-08T00:40:40;9.77;;;9.00;;
45420;SDS011;55462;47.042;8.292;2023-09-08T00:43:06;9.32;;;8.63;;
45420;SDS011;55462;47.042;8.292;2023-09-08T00:45:31;8.65;;;7.95;;
45420;SDS011;55462;47.042;8.292;2023-09-08T00:47:58;9.88;;;8.65;;
45420;SDS011;55462;47.042;8.292;2023-09-08T00:50:23;9.88;;;9.00;;
45420;SDS011;55462;47.042;8.292;2023-09-08T00:52:48;9.30;;;8.60;;
45420;SDS011;55462;47.042;8.292;2023-09-08T00:55:14;9.60;;;8.73;;
45420;SDS011;55462;47.042;8.292;2023-09-08T00:57:39;9.15;;;8.45;;
45420;SDS011;55462;47.042;8.292;2023-09-08T01:00:04;9.38;;;8.45;;
45420;SDS011;55462;47.042;8.292;2023-09-08T01:02:33;9.70;;;8.40;;
45420;SDS011;55462;47.042;8.292;2023-09-08T01:04:58;9.43;;;8.63;;
45420;SDS011;55462;47.042;8.292;2023-09-08T01:07:27;9.40;;;8.45;;
45420;SDS011;55462;47.042;8.292;2023-09-08T01:09:54;10.13;;;9.13;;
45420;SDS011;55462;47.042;8.292;2023-09-08T01:12:20;8.05;;;7.43;;
45420;SDS011;55462;47.042;8.292;2023-09-08T01:14:45;8.05;;;7.35;;
45420;SDS011;55462;47.042;8.292;2023-09-08T01:17:10;8.35;;;7.55;;
45420;SDS011;55462;47.042;8.292;2023-09-08T01:19:37;8.45;;;7.85;;
45420;SDS011;55462;47.042;8.292;2023-09-08T01:22:23;9.75;;;8.88;;
45420;SDS011;55462;47.042;8.292;2023-09-08T01:27:37;9.55;;;8.63;;
45420;SDS011;55462;47.042;8.292;2023-09-08T01:30:03;9.82;;;8.95;;
45420;SDS011;55462;47.042;8.292;2023-09-08T01:32:30;9.05;;;8.38;;
45420;SDS011;55462;47.042;8.292;2023-09-08T01:34:56;9.90;;;9.00;;
45420;SDS011;55462;47.042;8.292;2023-09-08T01:37:23;9.13;;;8.40;;
45420;SDS011;55462;47.042;8.292;2023-09-08T01:39:48;10.50;;;9.50;;
45420;SDS011;55462;47.042;8.292;2023-09-08T01:42:13;10.30;;;9.07;;
45420;SDS011;55462;47.042;8.292;2023-09-08T01:44:39;10.82;;;9.43;;
45420;SDS011;55462;47.042;8.292;2023-09-08T01:47:04;10.35;;;9.40;;
45420;SDS011;55462;47.042;8.292;2023-09-08T01:49:29;10.43;;;9.52;;
45420;SDS011;55462;47.042;8.292;2023-09-08T01:51:55;9.50;;;8.73;;
45420;SDS011;55462;47.042;8.292;2023-09-08T01:54:21;9.75;;;8.95;;
45420;SDS011;55462;47.042;8.292;2023-09-08T01:56:46;10.60;;;9.48;;
45420;SDS011;55462;47.042;8.292;2023-09-08T01:59:11;11.93;;;9.35;;
45420;SDS011;55462;47.042;8.292;2023-09-08T02:01:37;10.20;;;9.15;;
45420;SDS011;55462;47.042;8.292;2023-09-08T02:04:02;11.13;;;9.52;;
45420;SDS011;55462;47.042;8.292;2023-09-08T02:06:27;10.07;;;9.00;;
45420;SDS011;55462;47.042;8.292;2023-09-08T02:08:53;10.25;;;9.40;;
45420;SDS011;55462;47.042;8.292;2023-09-08T02:11:18;9.07;;;8.48;;
45420;SDS011;55462;47.042;8.292;2023-09-08T02:13:43;10.07;;;9.05;;
45420;SDS011;55462;47.042;8.292;2023-09-08T02:16:15;9.82;;;9.02;;
45420;SDS011;55462;47.042;8.292;2023-09-08T02:18:41;10.88;;;9.70;;
45420;SDS011;55462;47.042;8.292;2023-09-08T02:21:08;9.90;;;9.20;;
45420;SDS011;55462;47.042;8.292;2023-09-08T02:23:36;10.55;;;9.57;;
45420;SDS011;55462;47.042;8.292;2023-09-08T02:26:02;8.88;;;8.27;;
45420;SDS011;55462;47.042;8.292;2023-09-08T02:28:27;10.35;;;9.27;;
45420;SDS011;55462;47.042;8.292;2023-09-08T02:30:53;9.63;;;8.73;;
45420;SDS011;55462;47.042;8.292;2023-09-08T02:33:18;8.95;;;8.15;;
45420;SDS011;55462;47.042;8.292;2023-09-08T02:35:44;9.70;;;9.00;;
45420;SDS011;55462;47.042;8.292;2023-09-08T02:38:09;9.23;;;8.52;;
45420;SDS011;55462;47.042;8.292;2023-09-08T02:40:34;11.25;;;9.48;;
45420;SDS011;55462;47.042;8.292;2023-09-08T02:43:00;10.60;;;9.40;;
45420;SDS011;55462;47.042;8.292;2023-09-08T02:45:26;11.10;;;10.10;;
45420;SDS011;55462;47.042;8.292;2023-09-08T02:47:51;10.13;;;9.32;;
45420;SDS011;55462;47.042;8.292;2023-09-08T02:50:16;10.77;;;9.63;;
45420;SDS011;55462;47.042;8.292;2023-09-08T02:52:42;10.73;;;9.68;;
45420;SDS011;55462;47.042;8.292;2023-09-08T02:55:08;10.73;;;9.82;;
45420;SDS011;55462;47.042;8.292;2023-09-08T02:57:33;10.75;;;9.65;;
45420;SDS011;55462;47.042;8.292;2023-09-08T02:59:58;10.63;;;9.65;;
45420;SDS011;55462;47.042;8.292;2023-09-08T03:02:24;10.48;;;9.57;;
45420;SDS011;55462;47.042;8.292;2023-09-08T03:04:50;9.57;;;8.77;;
45420;SDS011;55462;47.042;8.292;2023-09-08T03:07:15;10.15;;;9.45;;
45420;SDS011;55462;47.042;8.292;2023-09-08T03:09:41;11.10;;;10.10;;
45420;SDS011;55462;47.042;8.292;2023-09-08T03:12:06;11.32;;;10.30;;
45420;SDS011;55462;47.042;8.292;2023-09-08T03:14:31;11.27;;;10.27;;
45420;SDS011;55462;47.042;8.292;2023-09-08T03:16:57;10.93;;;9.93;;
45420;SDS011;55462;47.042;8.292;2023-09-08T03:19:22;10.68;;;9.68;;
45420;SDS011;55462;47.042;8.292;2023-09-08T03:21:47;10.82;;;9.82;;
45420;SDS011;55462;47.042;8.292;2023-09-08T03:24:14;11.18;;;10.27;;
45420;SDS011;55462;47.042;8.292;2023-09-08T03:26:39;11.10;;;10.00;;
45420;SDS011;55462;47.042;8.292;2023-09-08T03:29:05;12.23;;;11.23;;
45420;SDS011;55462;47.042;8.292;2023-09-08T03:31:31;12.50;;;11.45;;
45420;SDS011;55462;47.042;8.292;2023-09-08T03:33:56;11.65;;;10.57;;
45420;SDS011;55462;47.042;8.292;2023-09-08T03:36:21;11.60;;;10.63;;
45420;SDS011;55462;47.042;8.292;2023-09-08T03:38:47;11.63;;;10.73;;
45420;SDS011;55462;47.042;8.292;2023-09-08T03:41:12;11.38;;;10.38;;
45420;SDS011;55462;47.042;8.292;2023-09-08T03:43:37;11.82;;;10.75;;
45420;SDS011;55462;47.042;8.292;2023-09-08T03:46:03;11.13;;;10.32;;
45420;SDS011;55462;47.042;8.292;2023-09-08T03:48:28;12.93;;;11.65;;
45420;SDS011;55462;47.042;8.292;2023-09-08T03:50:53;11.35;;;10.40;;
45420;SDS011;55462;47.042;8.292;2023-09-08T03:53:18;12.25;;;11.02;;
45420;SDS011;55462;47.042;8.292;2023-09-08T03:55:44;12.07;;;10.70;;
45420;SDS011;55462;47.042;8.292;2023-09-08T03:58:09;12.45;;;11.45;;
45420;SDS011;55462;47.042;8.292;2023-09-08T04:00:35;11.95;;;10.98;;
45420;SDS011;55462;47.042;8.292;2023-09-08T04:03:00;12.07;;;10.93;;
45420;SDS011;55462;47.042;8.292;2023-09-08T04:05:26;12.68;;;11.25;;
45420;SDS011;55462;47.042;8.292;2023-09-08T04:07:51;11.65;;;10.30;;
45420;SDS011;55462;47.042;8.292;2023-09-08T04:10:16;11.88;;;10.70;;
45420;SDS011;55462;47.042;8.292;2023-09-08T04:12:42;12.10;;;11.10;;
45420;SDS011;55462;47.042;8.292;2023-09-08T04:15:07;14.00;;;12.10;;
45420;SDS011;55462;47.042;8.292;2023-09-08T04:17:33;12.30;;;11.35;;
45420;SDS011;55462;47.042;8.292;2023-09-08T04:20:00;14.77;;;13.40;;
45420;SDS011;55462;47.042;8.292;2023-09-08T04:22:26;13.05;;;12.02;;
45420;SDS011;55462;47.042;8.292;2023-09-08T04:24:51;12.30;;;11.40;;
45420;SDS011;55462;47.042;8.292;2023-09-08T04:27:19;13.40;;;12.20;;
45420;SDS011;55462;47.042;8.292;2023-09-08T04:29:44;13.43;;;12.32;;
45420;SDS011;55462;47.042;8.292;2023-09-08T04:32:09;12.75;;;11.82;;
45420;SDS011;55462;47.042;8.292;2023-09-08T04:34:36;13.45;;;12.35;;
45420;SDS011;55462;47.042;8.292;2023-09-08T04:37:02;13.65;;;12.35;;
45420;SDS011;55462;47.042;8.292;2023-09-08T04:39:28;12.65;;;11.43;;
45420;SDS011;55462;47.042;8.292;2023-09-08T04:41:53;12.90;;;11.80;;
45420;SDS011;55462;47.042;8.292;2023-09-08T04:44:21;14.07;;;12.75;;
45420;SDS011;55462;47.042;8.292;2023-09-08T04:46:47;12.60;;;11.63;;
45420;SDS011;55462;47.042;8.292;2023-09-08T04:49:13;13.30;;;12.15;;
45420;SDS011;55462;47.042;8.292;2023-09-08T04:51:38;13.10;;;12.10;;
45420;SDS011;55462;47.042;8.292;2023-09-08T04:54:03;14.00;;;12.68;;
45420;SDS011;55462;47.042;8.292;2023-09-08T04:56:29;11.82;;;10.98;;
45420;SDS011;55462;47.042;8.292;2023-09-08T04:58:54;13.85;;;12.63;;
45420;SDS011;55462;47.042;8.292;2023-09-08T05:01:20;14.27;;;13.07;;
45420;SDS011;55462;47.042;8.292;2023-09-08T05:03:45;14.27;;;13.13;;
45420;SDS011;55462;47.042;8.292;2023-09-08T05:06:11;14.77;;;13.27;;
45420;SDS011;55462;47.042;8.292;2023-09-08T05:08:36;13.77;;;12.38;;
45420;SDS011;55462;47.042;8.292;2023-09-08T05:11:01;13.38;;;12.20;;
45420;SDS011;55462;47.042;8.292;2023-09-08T05:13:26;13.85;;;12.52;;
45420;SDS011;55462;47.042;8.292;2023-09-08T05:15:52;14.88;;;13.68;;
45420;SDS011;55462;47.042;8.292;2023-09-08T05:18:31;15.00;;;13.65;;
45420;SDS011;55462;47.042;8.292;2023-09-08T05:20:56;14.32;;;13.23;;
45420;SDS011;55462;47.042;8.292;2023-09-08T05:23:21;14.90;;;13.52;;
45420;SDS011;55462;47.042;8.292;2023-09-08T05:25:47;13.85;;;12.75;;
45420;SDS011;55462;47.042;8.292;2023-09-08T05:28:12;15.60;;;13.98;;
45420;SDS011;55462;47.042;8.292;2023-09-08T05:30:37;13.77;;;12.68;;
45420;SDS011;55462;47.042;8.292;2023-09-08T05:33:02;14.68;;;13.30;;
45420;SDS011;55462;47.042;8.292;2023-09-08T05:35:28;12.82;;;11.45;;
45420;SDS011;55462;47.042;8.292;2023-09-08T05:37:53;13.40;;;12.15;;
45420;SDS011;55462;47.042;8.292;2023-09-08T05:40:18;13.55;;;12.25;;
45420;SDS011;55462;47.042;8.292;2023-09-08T05:42:46;13.75;;;11.43;;
45420;SDS011;55462;47.042;8.292;2023-09-08T05:45:11;15.70;;;12.60;;
45420;SDS011;55462;47.042;8.292;2023-09-08T05:47:36;14.90;;;13.52;;
45420;SDS011;55462;47.042;8.292;2023-09-08T05:50:02;15.98;;;14.18;;
45420;SDS011;55462;47.042;8.292;2023-09-08T05:52:27;14.07;;;12.68;;
45420;SDS011;55462;47.042;8.292;2023-09-08T05:54:53;13.50;;;12.50;;
45420;SDS011;55462;47.042;8.292;2023-09-08T05:57:19;14.93;;;13.52;;
45420;SDS011;55462;47.042;8.292;2023-09-08T05:59:44;13.32;;;12.23;;
45420;SDS011;55462;47.042;8.292;2023-09-08T06:02:09;14.63;;;13.32;;
45420;SDS011;55462;47.042;8.292;2023-09-08T06:04:35;13.90;;;12.73;;
45420;SDS011;55462;47.042;8.292;2023-09-08T06:07:00;12.90;;;11.90;;
45420;SDS011;55462;47.042;8.292;2023-09-08T06:09:25;14.18;;;12.98;;
45420;SDS011;55462;47.042;8.292;2023-09-08T06:11:51;13.88;;;12.75;;
45420;SDS011;55462;47.042;8.292;2023-09-08T06:14:16;13.57;;;12.30;;
45420;SDS011;55462;47.042;8.292;2023-09-08T06:16:41;14.43;;;13.05;;
45420;SDS011;55462;47.042;8.292;2023-09-08T06:19:07;14.52;;;13.32;;
45420;SDS011;55462;47.042;8.292;2023-09-08T06:21:32;12.70;;;11.60;;
45420;SDS011;55462;47.042;8.292;2023-09-08T06:23:57;13.60;;;12.40;;
45420;SDS011;55462;47.042;8.292;2023-09-08T06:26:22;14.20;;;13.15;;
45420;SDS011;55462;47.042;8.292;2023-09-08T06:28:48;15.70;;;14.30;;
45420;SDS011;55462;47.042;8.292;2023-09-08T06:31:13;14.30;;;13.05;;
45420;SDS011;55462;47.042;8.292;2023-09-08T06:33:39;15.05;;;13.93;;
45420;SDS011;55462;47.042;8.292;2023-09-08T06:36:05;15.05;;;13.73;;
45420;SDS011;55462;47.042;8.292;2023-09-08T06:38:31;15.35;;;13.98;;
45420;SDS011;55462;47.042;8.292;2023-09-08T06:40:56;14.27;;;13.00;;
45420;SDS011;55462;47.042;8.292;2023-09-08T06:43:22;13.52;;;12.52;;
45420;SDS011;55462;47.042;8.292;2023-09-08T06:45:50;14.27;;;13.18;;
45420;SDS011;55462;47.042;8.292;2023-09-08T06:48:15;14.27;;;13.18;;
45420;SDS011;55462;47.042;8.292;2023-09-08T06:50:41;13.15;;;12.13;;
45420;SDS011;55462;47.042;8.292;2023-09-08T06:53:06;13.98;;;12.98;;
45420;SDS011;55462;47.042;8.292;2023-09-08T06:55:32;12.93;;;11.80;;
45420;SDS011;55462;47.042;8.292;2023-09-08T06:57:57;13.57;;;12.55;;
45420;SDS011;55462;47.042;8.292;2023-09-08T07:00:23;17.00;;;13.73;;
45420;SDS011;55462;47.042;8.292;2023-09-08T07:02:48;14.43;;;13.27;;
45420;SDS011;55462;47.042;8.292;2023-09-08T07:05:16;14.25;;;13.13;;
45420;SDS011;55462;47.042;8.292;2023-09-08T07:07:41;14.52;;;13.32;;
45420;SDS011;55462;47.042;8.292;2023-09-08T07:10:07;13.82;;;12.77;;
45420;SDS011;55462;47.042;8.292;2023-09-08T07:12:33;13.98;;;12.63;;
45420;SDS011;55462;47.042;8.292;2023-09-08T07:14:59;14.23;;;13.20;;
45420;SDS011;55462;47.042;8.292;2023-09-08T07:17:25;17.15;;;14.27;;
45420;SDS011;55462;47.042;8.292;2023-09-08T07:19:50;15.18;;;13.82;;
45420;SDS011;55462;47.042;8.292;2023-09-08T07:22:15;16.85;;;15.38;;
45420;SDS011;55462;47.042;8.292;2023-09-08T07:24:41;15.55;;;13.88;;
45420;SDS011;55462;47.042;8.292;2023-09-08T07:27:06;15.25;;;13.85;;
45420;SDS011;55462;47.042;8.292;2023-09-08T07:29:32;15.15;;;13.73;;
45420;SDS011;55462;47.042;8.292;2023-09-08T07:31:57;14.98;;;13.70;;
45420;SDS011;55462;47.042;8.292;2023-09-08T07:34:22;15.57;;;13.25;;
45420;SDS011;55462;47.042;8.292;2023-09-08T07:36:48;15.15;;;13.95;;
45420;SDS011;55462;47.042;8.292;2023-09-08T07:39:13;15.32;;;13.93;;
45420;SDS011;55462;47.042;8.292;2023-09-08T07:41:38;13.70;;;12.60;;
45420;SDS011;55462;47.042;8.292;2023-09-08T07:44:05;15.20;;;13.68;;
45420;SDS011;55462;47.042;8.292;2023-09-08T07:46:31;15.45;;;14.00;;
45420;SDS011;55462;47.042;8.292;2023-09-08T07:48:57;13.85;;;12.55;;
45420;SDS011;55462;47.042;8.292;2023-09-08T07:51:24;15.10;;;13.88;;
45420;SDS011;55462;47.042;8.292;2023-09-08T07:53:49;14.30;;;12.88;;
45420;SDS011;55462;47.042;8.292;2023-09-08T07:56:14;13.55;;;12.40;;
45420;SDS011;55462;47.042;8.292;2023-09-08T07:58:40;14.27;;;12.90;;
45420;SDS011;55462;47.042;8.292;2023-09-08T08:01:05;14.90;;;13.68;;
45420;SDS011;55462;47.042;8.292;2023-09-08T08:03:30;13.65;;;12.38;;
45420;SDS011;55462;47.042;8.292;2023-09-08T08:05:56;13.88;;;12.63;;
45420;SDS011;55462;47.042;8.292;2023-09-08T08:08:21;14.45;;;13.18;;
45420;SDS011;55462;47.042;8.292;2023-09-08T08:10:47;13.43;;;12.18;;
45420;SDS011;55462;47.042;8.292;2023-09-08T08:13:12;15.63;;;14.02;;
45420;SDS011;55462;47.042;8.292;2023-09-08T08:15:39;14.20;;;13.00;;
45420;SDS011;55462;47.042;8.292;2023-09-08T08:18:05;13.73;;;12.45;;
45420;SDS011;55462;47.042;8.292;2023-09-08T08:20:31;14.18;;;12.85;;
45420;SDS011;55462;47.042;8.292;2023-09-08T08:23:00;12.98;;;11.88;;
45420;SDS011;55462;47.042;8.292;2023-09-08T08:25:26;14.23;;;13.02;;
45420;SDS011;55462;47.042;8.292;2023-09-08T08:27:52;14.25;;;12.95;;
45420;SDS011;55462;47.042;8.292;2023-09-08T08:30:17;13.93;;;12.50;;
45420;SDS011;55462;47.042;8.292;2023-09-08T08:32:42;13.82;;;12.25;;
45420;SDS011;55462;47.042;8.292;2023-09-08T08:35:08;13.23;;;11.98;;
45420;SDS011;55462;47.042;8.292;2023-09-08T08:37:33;14.45;;;11.80;;
45420;SDS011;55462;47.042;8.292;2023-09-08T08:39:58;11.98;;;10.98;;
45420;SDS011;55462;47.042;8.292;2023-09-08T08:42:24;12.20;;;10.93;;
45420;SDS011;55462;47.042;8.292;2023-09-08T08:44:56;11.82;;;10.93;;
45420;SDS011;55462;47.042;8.292;2023-09-08T08:47:21;12.18;;;10.95;;
45420;SDS011;55462;47.042;8.292;2023-09-08T08:49:47;12.32;;;11.15;;
45420;SDS011;55462;47.042;8.292;2023-09-08T08:52:14;11.82;;;10.70;;
45420;SDS011;55462;47.042;8.292;2023-09-08T08:54:40;11.77;;;10.65;;
45420;SDS011;55462;47.042;8.292;2023-09-08T08:57:06;14.65;;;11.18;;
45420;SDS011;55462;47.042;8.292;2023-09-08T08:59:31;11.48;;;10.65;;
45420;SDS011;55462;47.042;8.292;2023-09-08T09:01:58;15.10;;;11.88;;
45420;SDS011;55462;47.042;8.292;2023-09-08T09:04:24;13.60;;;12.35;;
45420;SDS011;55462;47.042;8.292;2023-09-08T09:06:50;14.23;;;12.65;;
45420;SDS011;55462;47.042;8.292;2023-09-08T09:09:15;14.32;;;12.48;;
45420;SDS011;55462;47.042;8.292;2023-09-08T09:11:41;12.00;;;10.98;;
45420;SDS011;55462;47.042;8.292;2023-09-08T09:14:06;13.15;;;11.85;;
45420;SDS011;55462;47.042;8.292;2023-09-08T09:16:38;12.13;;;10.93;;
45420;SDS011;55462;47.042;8.292;2023-09-08T09:19:05;13.57;;;12.23;;
45420;SDS011;55462;47.042;8.292;2023-09-08T09:21:43;15.80;;;11.68;;
45420;SDS011;55462;47.042;8.292;2023-09-08T09:24:17;12.65;;;11.48;;
45420;SDS011;55462;47.042;8.292;2023-09-08T09:26:52;12.80;;;11.57;;
45420;SDS011;55462;47.042;8.292;2023-09-08T09:29:18;13.52;;;12.35;;
45420;SDS011;55462;47.042;8.292;2023-09-08T09:31:53;13.05;;;11.35;;
45420;SDS011;55462;47.042;8.292;2023-09-08T09:34:22;13.48;;;12.07;;
45420;SDS011;55462;47.042;8.292;2023-09-08T09:36:48;12.20;;;11.10;;
45420;SDS011;55462;47.042;8.292;2023-09-08T09:39:19;12.70;;;11.40;;
45420;SDS011;55462;47.042;8.292;2023-09-08T09:41:45;13.35;;;12.02;;
45420;SDS011;55462;47.042;8.292;2023-09-08T09:44:11;12.30;;;11.30;;
45420;SDS011;55462;47.042;8.292;2023-09-08T09:46:37;13.02;;;11.65;;
45420;SDS011;55462;47.042;8.292;2023-09-08T09:49:02;13.77;;;12.57;;
45420;SDS011;55462;47.042;8.292;2023-09-08T09:51:27;13.98;;;12.32;;
45420;SDS011;55462;47.042;8.292;2023-09-08T09:53:54;13.70;;;12.45;;
45420;SDS011;55462;47.042;8.292;2023-09-08T09:56:20;14.77;;;12.00;;
45420;SDS011;55462;47.042;8.292;2023-09-08T09:58:48;13.65;;;12.18;;
45420;SDS011;55462;47.042;8.292;2023-09-08T10:01:13;12.63;;;11.65;;
45420;SDS011;55462;47.042;8.292;2023-09-08T10:03:39;14.55;;;13.32;;
45420;SDS011;55462;47.042;8.292;2023-09-08T10:06:05;15.07;;;13.30;;
45420;SDS011;55462;47.042;8.292;2023-09-08T10:08:31;14.05;;;12.65;;
45420;SDS011;55462;47.042;8.292;2023-09-08T10:11:01;14.70;;;12.43;;
45420;SDS011;55462;47.042;8.292;2023-09-08T10:13:33;18.52;;;13.30;;
45420;SDS011;55462;47.042;8.292;2023-09-08T10:16:08;14.93;;;13.65;;
45420;SDS011;55462;47.042;8.292;2023-09-08T10:18:33;17.52;;;13.02;;
45420;SDS011;55462;47.042;8.292;2023-09-08T10:21:00;14.60;;;13.27;;
45420;SDS011;55462;47.042;8.292;2023-09-08T10:23:40;13.48;;;12.23;;
45420;SDS011;55462;47.042;8.292;2023-09-08T10:26:09;12.85;;;11.55;;
45420;SDS011;55462;47.042;8.292;2023-09-08T10:28:35;14.25;;;12.75;;
45420;SDS011;55462;47.042;8.292;2023-09-08T10:31:02;12.95;;;11.80;;
45420;SDS011;55462;47.042;8.292;2023-09-08T10:33:28;13.43;;;12.20;;
45420;SDS011;55462;47.042;8.292;2023-09-08T10:35:54;12.93;;;11.55;;
45420;SDS011;55462;47.042;8.292;2023-09-08T10:40:52;11.40;;;10.55;;
45420;SDS011;55462;47.042;8.292;2023-09-08T10:43:18;12.85;;;11.68;;
45420;SDS011;55462;47.042;8.292;2023-09-08T10:45:45;12.40;;;11.30;;
45420;SDS011;55462;47.042;8.292;2023-09-08T10:48:11;11.48;;;10.50;;
45420;SDS011;55462;47.042;8.292;2023-09-08T10:50:39;14.52;;;12.00;;
45420;SDS011;55462;47.042;8.292;2023-09-08T10:53:18;12.13;;;11.05;;
45420;SDS011;55462;47.042;8.292;2023-09-08T10:55:44;10.85;;;9.95;;
45420;SDS011;55462;47.042;8.292;2023-09-08T10:58:19;11.68;;;10.60;;
45420;SDS011;55462;47.042;8.292;2023-09-08T11:01:24;11.45;;;10.60;;
45420;SDS011;55462;47.042;8.292;2023-09-08T11:03:52;11.20;;;10.40;;
45420;SDS011;55462;47.042;8.292;2023-09-08T11:06:18;12.02;;;10.32;;
45420;SDS011;55462;47.042;8.292;2023-09-08T11:08:47;10.77;;;9.80;;
45420;SDS011;55462;47.042;8.292;2023-09-08T11:11:13;14.27;;;10.15;;
45420;SDS011;55462;47.042;8.292;2023-09-08T11:13:39;11.27;;;10.40;;
45420;SDS011;55462;47.042;8.292;2023-09-08T11:16:08;9.63;;;8.95;;
45420;SDS011;55462;47.042;8.292;2023-09-08T11:18:33;9.95;;;9.00;;
45420;SDS011;55462;47.042;8.292;2023-09-08T11:21:00;13.15;;;9.73;;
45420;SDS011;55462;47.042;8.292;2023-09-08T11:23:29;10.60;;;9.65;;
45420;SDS011;55462;47.042;8.292;2023-09-08T11:25:56;10.68;;;9.23;;
45420;SDS011;55462;47.042;8.292;2023-09-08T11:28:22;9.50;;;8.80;;
45420;SDS011;55462;47.042;8.292;2023-09-08T11:30:48;9.63;;;8.82;;
45420;SDS011;55462;47.042;8.292;2023-09-08T11:33:14;10.95;;;9.90;;
45420;SDS011;55462;47.042;8.292;2023-09-08T11:35:46;13.63;;;8.82;;
45420;SDS011;55462;47.042;8.292;2023-09-08T11:38:12;9.57;;;8.68;;
45420;SDS011;55462;47.042;8.292;2023-09-08T11:40:38;9.95;;;9.13;;
45420;SDS011;55462;47.042;8.292;2023-09-08T11:43:03;9.95;;;9.20;;
45420;SDS011;55462;47.042;8.292;2023-09-08T11:45:30;9.68;;;8.77;;
45420;SDS011;55462;47.042;8.292;2023-09-08T11:47:55;10.00;;;8.55;;
45420;SDS011;55462;47.042;8.292;2023-09-08T11:50:21;9.50;;;8.63;;
45420;SDS011;55462;47.042;8.292;2023-09-08T11:52:49;8.65;;;8.05;;
45420;SDS011;55462;47.042;8.292;2023-09-08T11:55:15;12.95;;;9.20;;
45420;SDS011;55462;47.042;8.292;2023-09-08T11:57:42;10.38;;;9.50;;
45420;SDS011;55462;47.042;8.292;2023-09-08T12:00:09;10.73;;;9.55;;
45420;SDS011;55462;47.042;8.292;2023-09-08T12:02:39;9.40;;;8.60;;
45420;SDS011;55462;47.042;8.292;2023-09-08T12:05:04;9.93;;;8.95;;
45420;SDS011;55462;47.042;8.292;2023-09-08T12:07:30;9.35;;;8.55;;
45420;SDS011;55462;47.042;8.292;2023-09-08T12:09:56;9.52;;;8.18;;
45420;SDS011;55462;47.042;8.292;2023-09-08T12:12:21;9.27;;;8.45;;
45420;SDS011;55462;47.042;8.292;2023-09-08T12:14:46;8.85;;;8.05;;
45420;SDS011;55462;47.042;8.292;2023-09-08T12:17:12;8.93;;;8.13;;
45420;SDS011;55462;47.042;8.292;2023-09-08T12:19:41;11.38;;;8.38;;
45420;SDS011;55462;47.042;8.292;2023-09-08T12:22:07;9.45;;;8.55;;
45420;SDS011;55462;47.042;8.292;2023-09-08T12:27:21;9.77;;;8.88;;
45420;SDS011;55462;47.042;8.292;2023-09-08T12:29:56;10.85;;;9.00;;
45420;SDS011;55462;47.042;8.292;2023-09-08T12:32:22;9.63;;;8.73;;
45420;SDS011;55462;47.042;8.292;2023-09-08T12:34:48;9.50;;;8.88;;
45420;SDS011;55462;47.042;8.292;2023-09-08T12:37:13;10.02;;;9.02;;
45420;SDS011;55462;47.042;8.292;2023-09-08T12:39:39;9.82;;;9.02;;
45420;SDS011;55462;47.042;8.292;2023-09-08T12:42:04;9.07;;;8.40;;
45420;SDS011;55462;47.042;8.292;2023-09-08T12:44:30;9.48;;;8.63;;
45420;SDS011;55462;47.042;8.292;2023-09-08T12:46:55;9.57;;;8.63;;
45420;SDS011;55462;47.042;8.292;2023-09-08T12:49:20;9.15;;;8.18;;
45420;SDS011;55462;47.042;8.292;2023-09-08T12:51:46;8.77;;;8.05;;
45420;SDS011;55462;47.042;8.292;2023-09-08T12:54:11;8.88;;;8.15;;
45420;SDS011;55462;47.042;8.292;2023-09-08T12:56:36;12.48;;;9.43;;
45420;SDS011;55462;47.042;8.292;2023-09-08T12:59:02;9.88;;;8.95;;
45420;SDS011;55462;47.042;8.292;2023-09-08T13:01:28;9.68;;;8.90;;
45420;SDS011;55462;47.042;8.292;2023-09-08T13:03:53;10.38;;;9.48;;
45420;SDS011;55462;47.042;8.292;2023-09-08T13:06:19;11.85;;;9.50;;
45420;SDS011;55462;47.042;8.292;2023-09-08T13:08:44;10.48;;;9.77;;
45420;SDS011;55462;47.042;8.292;2023-09-08T13:11:09;9.23;;;8.50;;
45420;SDS011;55462;47.042;8.292;2023-09-08T13:13:34;9.48;;;8.55;;
45420;SDS011;55462;47.042;8.292;2023-09-08T13:16:00;12.18;;;9.68;;
45420;SDS011;55462;47.042;8.292;2023-09-08T13:18:25;10.00;;;9.20;;
45420;SDS011;55462;47.042;8.292;2023-09-08T13:20:50;9.50;;;8.52;;
45420;SDS011;55462;47.042;8.292;2023-09-08T13:23:16;9.48;;;8.57;;
45420;SDS011;55462;47.042;8.292;2023-09-08T13:25:41;12.52;;;8.75;;
45420;SDS011;55462;47.042;8.292;2023-09-08T13:28:06;9.23;;;8.43;;
45420;SDS011;55462;47.042;8.292;2023-09-08T13:30:35;10.48;;;9.50;;
45420;SDS011;55462;47.042;8.292;2023-09-08T13:33:00;14.43;;;9.65;;
45420;SDS011;55462;47.042;8.292;2023-09-08T13:35:25;9.57;;;8.68;;
45420;SDS011;55462;47.042;8.292;2023-09-08T13:37:51;9.25;;;8.45;;
45420;SDS011;55462;47.042;8.292;2023-09-08T13:40:16;9.70;;;9.00;;
45420;SDS011;55462;47.042;8.292;2023-09-08T13:42:41;9.43;;;8.60;;
45420;SDS011;55462;47.042;8.292;2023-09-08T13:45:07;9.30;;;8.63;;
45420;SDS011;55462;47.042;8.292;2023-09-08T13:47:32;9.70;;;8.25;;
45420;SDS011;55462;47.042;8.292;2023-09-08T13:49:58;9.82;;;8.95;;
45420;SDS011;55462;47.042;8.292;2023-09-08T13:52:23;10.35;;;9.15;;
45420;SDS011;55462;47.042;8.292;2023-09-08T13:54:48;9.80;;;9.05;;
45420;SDS011;55462;47.042;8.292;2023-09-08T13:57:14;9.90;;;8.25;;
45420;SDS011;55462;47.042;8.292;2023-09-08T13:59:39;9.02;;;8.32;;
45420;SDS011;55462;47.042;8.292;2023-09-08T14:02:04;8.88;;;8.00;;
45420;SDS011;55462;47.042;8.292;2023-09-08T14:04:30;9.52;;;8.63;;
45420;SDS011;55462;47.042;8.292;2023-09-08T14:06:55;8.90;;;8.00;;
45420;SDS011;55462;47.042;8.292;2023-09-08T14:09:20;8.90;;;8.10;;
45420;SDS011;55462;47.042;8.292;2023-09-08T14:11:45;9.90;;;7.90;;
45420;SDS011;55462;47.042;8.292;2023-09-08T14:14:11;8.55;;;7.72;;
45420;SDS011;55462;47.042;8.292;2023-09-08T14:16:36;8.82;;;8.02;;
45420;SDS011;55462;47.042;8.292;2023-09-08T14:19:01;8.13;;;7.47;;
45420;SDS011;55462;47.042;8.292;2023-09-08T14:21:27;9.40;;;7.68;;
45420;SDS011;55462;47.042;8.292;2023-09-08T14:23:53;12.85;;;8.38;;
45420;SDS011;55462;47.042;8.292;2023-09-08T14:26:18;8.13;;;7.50;;
45420;SDS011;55462;47.042;8.292;2023-09-08T14:28:45;8.40;;;7.60;;
45420;SDS011;55462;47.042;8.292;2023-09-08T14:31:11;8.55;;;7.90;;
45420;SDS011;55462;47.042;8.292;2023-09-08T14:33:36;8.00;;;7.40;;